sensor_id;sensor_type;location;lat;lon;timestamp;P1;durP1;ratioP1;P2;durP2;ratioP2
5077;SDS011;2557;51.390;7.494;2023-11-21T00:00:25;37.57;;;17.60;;
5077;SDS011;2557;51.390;7.494;2023-11-21T00:02:52;35.80;;;18.53;;
5077;SDS011;2557;51.390;7.494;2023-11-21T00:05:18;41.20;;;18.60;;
5077;SDS011;2557;51.390;7.494;2023-11-21T00:07:44;52.37;;;18.80;;
5077;SDS011;2557;51.390;7.494;2023-11-21T00:10:10;44.83;;;19.00;;
5077;SDS011;2557;51.390;7.494;2023-11-21T00:12:36;46.33;;;18.77;;
5077;SDS011;2557;51.390;7.494;2023-11-21T00:15:03;44.57;;;20.23;;
5077;SDS011;2557;51.390;7.494;2023-11-21T00:17:30;37.37;;;17.40;;
5077;SDS011;2557;51.390;7.494;2023-11-21T00:19:56;46.50;;;18.47;;
5077;SDS011;2557;51.390;7.494;2023-11-21T00:22:22;51.63;;;22.10;;
5077;SDS011;2557;51.390;7.494;2023-11-21T00:24:48;55.00;;;20.90;;
5077;SDS011;2557;51.390;7.494;2023-11-21T00:27:14;37.97;;;20.90;;
5077;SDS011;2557;51.390;7.494;2023-11-21T00:29:40;39.10;;;20.70;;
5077;SDS011;2557;51.390;7.494;2023-11-21T00:32:06;41.93;;;21.53;;
5077;SDS011;2557;51.390;7.494;2023-11-21T00:34:32;47.13;;;21.77;;
5077;SDS011;2557;51.390;7.494;2023-11-21T00:36:59;52.30;;;21.23;;
5077;SDS011;2557;51.390;7.494;2023-11-21T00:39:25;46.97;;;20.67;;
5077;SDS011;2557;51.390;7.494;2023-11-21T00:41:51;43.17;;;20.27;;
5077;SDS011;2557;51.390;7.494;2023-11-21T00:44:18;39.40;;;20.60;;
5077;SDS011;2557;51.390;7.494;2023-11-21T00:46:44;38.63;;;19.93;;
5077;SDS011;2557;51.390;7.494;2023-11-21T00:49:10;40.93;;;20.80;;
5077;SDS011;2557;51.390;7.494;2023-11-21T00:51:36;45.40;;;21.57;;
5077;SDS011;2557;51.390;7.494;2023-11-21T00:54:02;37.80;;;20.37;;
5077;SDS011;2557;51.390;7.494;2023-11-21T00:56:28;44.67;;;20.23;;
5077;SDS011;2557;51.390;7.494;2023-11-21T00:58:54;40.80;;;20.33;;
5077;SDS011;2557;51.390;7.494;2023-11-21T01:01:21;41.37;;;21.97;;
5077;SDS011;2557;51.390;7.494;2023-11-21T01:03:48;32.60;;;19.13;;
5077;SDS011;2557;51.390;7.494;2023-11-21T01:06:14;39.77;;;20.40;;
5077;SDS011;2557;51.390;7.494;2023-11-21T01:08:40;41.00;;;20.47;;
5077;SDS011;2557;51.390;7.494;2023-11-21T01:11:06;45.93;;;21.47;;
5077;SDS011;2557;51.390;7.494;2023-11-21T01:13:38;37.93;;;19.23;;
5077;SDS011;2557;51.390;7.494;2023-11-21T01:16:04;45.27;;;20.73;;
5077;SDS011;2557;51.390;7.494;2023-11-21T01:18:31;31.40;;;20.27;;
5077;SDS011;2557;51.390;7.494;2023-11-21T01:20:57;51.27;;;22.43;;
5077;SDS011;2557;51.390;7.494;2023-11-21T01:23:24;46.13;;;21.73;;
5077;SDS011;2557;51.390;7.494;2023-11-21T01:25:50;43.17;;;22.50;;
5077;SDS011;2557;51.390;7.494;2023-11-21T01:28:16;48.33;;;21.23;;
5077;SDS011;2557;51.390;7.494;2023-11-21T01:30:42;38.73;;;19.30;;
5077;SDS011;2557;51.390;7.494;2023-11-21T01:33:09;46.90;;;21.50;;
5077;SDS011;2557;51.390;7.494;2023-11-21T01:35:35;41.30;;;20.90;;
5077;SDS011;2557;51.390;7.494;2023-11-21T01:38:01;46.57;;;21.57;;
5077;SDS011;2557;51.390;7.494;2023-11-21T01:40:28;49.23;;;22.97;;
5077;SDS011;2557;51.390;7.494;2023-11-21T01:42:55;47.87;;;22.67;;
5077;SDS011;2557;51.390;7.494;2023-11-21T01:45:22;49.63;;;22.67;;
5077;SDS011;2557;51.390;7.494;2023-11-21T01:47:50;39.17;;;20.57;;
5077;SDS011;2557;51.390;7.494;2023-11-21T01:50:16;39.87;;;22.73;;
5077;SDS011;2557;51.390;7.494;2023-11-21T01:52:46;42.70;;;22.20;;
5077;SDS011;2557;51.390;7.494;2023-11-21T01:55:12;50.77;;;21.57;;
5077;SDS011;2557;51.390;7.494;2023-11-21T01:57:40;46.20;;;22.97;;
5077;SDS011;2557;51.390;7.494;2023-11-21T02:00:06;41.40;;;23.27;;
5077;SDS011;2557;51.390;7.494;2023-11-21T02:02:42;52.93;;;24.50;;
5077;SDS011;2557;51.390;7.494;2023-11-21T02:05:09;45.67;;;23.50;;
5077;SDS011;2557;51.390;7.494;2023-11-21T02:07:35;44.80;;;22.03;;
5077;SDS011;2557;51.390;7.494;2023-11-21T02:10:01;41.63;;;19.73;;
5077;SDS011;2557;51.390;7.494;2023-11-21T02:12:27;43.40;;;20.47;;
5077;SDS011;2557;51.390;7.494;2023-11-21T02:14:53;49.47;;;23.50;;
5077;SDS011;2557;51.390;7.494;2023-11-21T02:17:20;43.73;;;22.10;;
5077;SDS011;2557;51.390;7.494;2023-11-21T02:19:46;42.00;;;22.10;;
5077;SDS011;2557;51.390;7.494;2023-11-21T02:22:16;47.47;;;24.63;;
5077;SDS011;2557;51.390;7.494;2023-11-21T02:24:42;42.53;;;21.30;;
5077;SDS011;2557;51.390;7.494;2023-11-21T02:27:08;47.40;;;21.40;;
5077;SDS011;2557;51.390;7.494;2023-11-21T02:29:35;53.37;;;20.40;;
5077;SDS011;2557;51.390;7.494;2023-11-21T02:32:01;42.13;;;19.37;;
5077;SDS011;2557;51.390;7.494;2023-11-21T02:34:27;39.90;;;20.10;;
5077;SDS011;2557;51.390;7.494;2023-11-21T02:36:53;44.20;;;20.30;;
5077;SDS011;2557;51.390;7.494;2023-11-21T02:39:19;46.43;;;21.13;;
5077;SDS011;2557;51.390;7.494;2023-11-21T02:41:47;46.10;;;22.27;;
5077;SDS011;2557;51.390;7.494;2023-11-21T02:44:13;37.87;;;20.00;;
5077;SDS011;2557;51.390;7.494;2023-11-21T02:46:39;42.53;;;20.17;;
5077;SDS011;2557;51.390;7.494;2023-11-21T02:49:05;45.67;;;21.40;;
5077;SDS011;2557;51.390;7.494;2023-11-21T02:51:32;41.17;;;19.60;;
5077;SDS011;2557;51.390;7.494;2023-11-21T02:53:58;49.80;;;21.17;;
5077;SDS011;2557;51.390;7.494;2023-11-21T02:56:25;45.27;;;20.93;;
5077;SDS011;2557;51.390;7.494;2023-11-21T02:58:51;45.30;;;21.00;;
5077;SDS011;2557;51.390;7.494;2023-11-21T03:01:18;39.03;;;19.53;;
5077;SDS011;2557;51.390;7.494;2023-11-21T03:03:44;42.70;;;18.10;;
5077;SDS011;2557;51.390;7.494;2023-11-21T03:06:10;48.23;;;20.50;;
5077;SDS011;2557;51.390;7.494;2023-11-21T03:08:36;43.17;;;20.83;;
5077;SDS011;2557;51.390;7.494;2023-11-21T03:11:02;38.07;;;19.20;;
5077;SDS011;2557;51.390;7.494;2023-11-21T03:13:28;42.80;;;20.60;;
5077;SDS011;2557;51.390;7.494;2023-11-21T03:15:55;53.23;;;18.90;;
5077;SDS011;2557;51.390;7.494;2023-11-21T03:18:21;54.43;;;19.87;;
5077;SDS011;2557;51.390;7.494;2023-11-21T03:20:47;39.20;;;18.63;;
5077;SDS011;2557;51.390;7.494;2023-11-21T03:23:13;47.60;;;22.80;;
5077;SDS011;2557;51.390;7.494;2023-11-21T03:25:40;43.93;;;20.57;;
5077;SDS011;2557;51.390;7.494;2023-11-21T03:28:06;49.17;;;20.20;;
5077;SDS011;2557;51.390;7.494;2023-11-21T03:30:33;55.33;;;21.30;;
5077;SDS011;2557;51.390;7.494;2023-11-21T03:32:59;39.77;;;20.17;;
5077;SDS011;2557;51.390;7.494;2023-11-21T03:35:25;50.27;;;20.17;;
5077;SDS011;2557;51.390;7.494;2023-11-21T03:37:51;42.63;;;19.40;;
5077;SDS011;2557;51.390;7.494;2023-11-21T03:40:17;47.00;;;21.50;;
5077;SDS011;2557;51.390;7.494;2023-11-21T03:42:43;52.03;;;20.87;;
5077;SDS011;2557;51.390;7.494;2023-11-21T03:45:09;41.70;;;20.03;;
5077;SDS011;2557;51.390;7.494;2023-11-21T03:47:37;50.00;;;19.47;;
5077;SDS011;2557;51.390;7.494;2023-11-21T03:50:03;41.37;;;18.13;;
5077;SDS011;2557;51.390;7.494;2023-11-21T03:52:29;37.70;;;20.50;;
5077;SDS011;2557;51.390;7.494;2023-11-21T03:54:55;38.07;;;19.37;;
5077;SDS011;2557;51.390;7.494;2023-11-21T03:57:21;46.33;;;21.37;;
5077;SDS011;2557;51.390;7.494;2023-11-21T03:59:47;45.47;;;20.30;;
5077;SDS011;2557;51.390;7.494;2023-11-21T04:02:13;44.97;;;20.73;;
5077;SDS011;2557;51.390;7.494;2023-11-21T04:04:39;43.67;;;20.53;;
5077;SDS011;2557;51.390;7.494;2023-11-21T04:07:05;47.10;;;20.50;;
5077;SDS011;2557;51.390;7.494;2023-11-21T04:09:31;38.53;;;17.17;;
5077;SDS011;2557;51.390;7.494;2023-11-21T04:11:57;42.10;;;19.77;;
5077;SDS011;2557;51.390;7.494;2023-11-21T04:14:23;50.77;;;20.60;;
5077;SDS011;2557;51.390;7.494;2023-11-21T04:16:49;44.90;;;18.83;;
5077;SDS011;2557;51.390;7.494;2023-11-21T04:19:15;43.13;;;18.50;;
5077;SDS011;2557;51.390;7.494;2023-11-21T04:21:42;37.00;;;19.10;;
5077;SDS011;2557;51.390;7.494;2023-11-21T04:24:08;49.20;;;21.00;;
5077;SDS011;2557;51.390;7.494;2023-11-21T04:26:34;48.23;;;19.60;;
5077;SDS011;2557;51.390;7.494;2023-11-21T04:29:00;36.63;;;17.90;;
5077;SDS011;2557;51.390;7.494;2023-11-21T04:31:26;34.20;;;17.93;;
5077;SDS011;2557;51.390;7.494;2023-11-21T04:33:52;41.17;;;19.20;;
5077;SDS011;2557;51.390;7.494;2023-11-21T04:36:18;46.60;;;19.33;;
5077;SDS011;2557;51.390;7.494;2023-11-21T04:38:44;47.33;;;22.60;;
5077;SDS011;2557;51.390;7.494;2023-11-21T04:41:11;45.53;;;19.57;;
5077;SDS011;2557;51.390;7.494;2023-11-21T04:43:37;45.80;;;19.90;;
5077;SDS011;2557;51.390;7.494;2023-11-21T04:46:03;44.57;;;19.20;;
5077;SDS011;2557;51.390;7.494;2023-11-21T04:48:29;37.57;;;19.10;;
5077;SDS011;2557;51.390;7.494;2023-11-21T04:50:55;48.73;;;20.97;;
5077;SDS011;2557;51.390;7.494;2023-11-21T04:53:21;57.83;;;20.50;;
5077;SDS011;2557;51.390;7.494;2023-11-21T04:55:47;52.73;;;20.77;;
5077;SDS011;2557;51.390;7.494;2023-11-21T04:58:13;39.07;;;18.17;;
5077;SDS011;2557;51.390;7.494;2023-11-21T05:00:39;49.87;;;17.83;;
5077;SDS011;2557;51.390;7.494;2023-11-21T05:03:06;42.47;;;19.07;;
5077;SDS011;2557;51.390;7.494;2023-11-21T05:05:32;48.17;;;20.30;;
5077;SDS011;2557;51.390;7.494;2023-11-21T05:07:59;47.33;;;19.10;;
5077;SDS011;2557;51.390;7.494;2023-11-21T05:10:26;45.40;;;22.23;;
5077;SDS011;2557;51.390;7.494;2023-11-21T05:12:52;47.07;;;21.90;;
5077;SDS011;2557;51.390;7.494;2023-11-21T05:15:18;45.27;;;19.40;;
5077;SDS011;2557;51.390;7.494;2023-11-21T05:17:44;49.63;;;20.70;;
5077;SDS011;2557;51.390;7.494;2023-11-21T05:20:11;38.00;;;19.13;;
5077;SDS011;2557;51.390;7.494;2023-11-21T05:22:38;44.50;;;18.60;;
5077;SDS011;2557;51.390;7.494;2023-11-21T05:25:05;61.50;;;18.83;;
5077;SDS011;2557;51.390;7.494;2023-11-21T05:27:32;49.50;;;18.83;;
5077;SDS011;2557;51.390;7.494;2023-11-21T05:29:59;47.07;;;20.67;;
5077;SDS011;2557;51.390;7.494;2023-11-21T05:32:25;43.53;;;19.77;;
5077;SDS011;2557;51.390;7.494;2023-11-21T05:34:51;51.17;;;18.70;;
5077;SDS011;2557;51.390;7.494;2023-11-21T05:37:18;48.83;;;20.47;;
5077;SDS011;2557;51.390;7.494;2023-11-21T05:39:44;48.97;;;21.13;;
5077;SDS011;2557;51.390;7.494;2023-11-21T05:42:10;62.50;;;21.60;;
5077;SDS011;2557;51.390;7.494;2023-11-21T05:44:36;53.00;;;20.10;;
5077;SDS011;2557;51.390;7.494;2023-11-21T05:47:02;53.20;;;20.63;;
5077;SDS011;2557;51.390;7.494;2023-11-21T05:49:28;44.13;;;19.70;;
5077;SDS011;2557;51.390;7.494;2023-11-21T05:51:55;56.40;;;22.00;;
5077;SDS011;2557;51.390;7.494;2023-11-21T05:54:21;60.30;;;22.20;;
5077;SDS011;2557;51.390;7.494;2023-11-21T05:56:48;53.37;;;21.50;;
5077;SDS011;2557;51.390;7.494;2023-11-21T05:59:14;64.53;;;23.93;;
5077;SDS011;2557;51.390;7.494;2023-11-21T06:01:40;70.07;;;23.40;;
5077;SDS011;2557;51.390;7.494;2023-11-21T06:04:06;63.43;;;22.43;;
5077;SDS011;2557;51.390;7.494;2023-11-21T06:06:36;55.97;;;20.77;;
5077;SDS011;2557;51.390;7.494;2023-11-21T06:09:02;66.93;;;23.70;;
5077;SDS011;2557;51.390;7.494;2023-11-21T06:11:28;47.73;;;21.77;;
5077;SDS011;2557;51.390;7.494;2023-11-21T06:13:54;69.13;;;24.47;;
5077;SDS011;2557;51.390;7.494;2023-11-21T06:16:20;51.10;;;22.13;;
5077;SDS011;2557;51.390;7.494;2023-11-21T06:18:46;61.13;;;21.40;;
5077;SDS011;2557;51.390;7.494;2023-11-21T06:21:12;51.70;;;20.90;;
5077;SDS011;2557;51.390;7.494;2023-11-21T06:23:38;47.90;;;21.40;;
5077;SDS011;2557;51.390;7.494;2023-11-21T06:26:04;66.83;;;21.63;;
5077;SDS011;2557;51.390;7.494;2023-11-21T06:28:31;48.93;;;18.80;;
5077;SDS011;2557;51.390;7.494;2023-11-21T06:30:57;52.97;;;20.87;;
5077;SDS011;2557;51.390;7.494;2023-11-21T06:33:23;53.80;;;22.53;;
5077;SDS011;2557;51.390;7.494;2023-11-21T06:35:52;55.53;;;22.10;;
5077;SDS011;2557;51.390;7.494;2023-11-21T06:38:18;55.63;;;21.30;;
5077;SDS011;2557;51.390;7.494;2023-11-21T06:40:44;63.43;;;21.53;;
5077;SDS011;2557;51.390;7.494;2023-11-21T06:43:11;63.67;;;20.23;;
5077;SDS011;2557;51.390;7.494;2023-11-21T06:45:37;59.90;;;22.87;;
5077;SDS011;2557;51.390;7.494;2023-11-21T06:48:03;60.00;;;21.93;;
5077;SDS011;2557;51.390;7.494;2023-11-21T06:50:29;62.13;;;23.77;;
5077;SDS011;2557;51.390;7.494;2023-11-21T06:52:55;60.83;;;24.13;;
5077;SDS011;2557;51.390;7.494;2023-11-21T06:55:22;62.47;;;22.50;;
5077;SDS011;2557;51.390;7.494;2023-11-21T06:57:48;55.23;;;24.07;;
5077;SDS011;2557;51.390;7.494;2023-11-21T07:00:15;57.13;;;22.70;;
5077;SDS011;2557;51.390;7.494;2023-11-21T07:02:42;75.40;;;25.10;;
5077;SDS011;2557;51.390;7.494;2023-11-21T07:05:08;65.53;;;24.90;;
5077;SDS011;2557;51.390;7.494;2023-11-21T07:07:35;66.67;;;24.20;;
5077;SDS011;2557;51.390;7.494;2023-11-21T07:10:02;67.87;;;22.77;;
5077;SDS011;2557;51.390;7.494;2023-11-21T07:12:29;62.10;;;23.53;;
5077;SDS011;2557;51.390;7.494;2023-11-21T07:14:56;62.03;;;24.83;;
5077;SDS011;2557;51.390;7.494;2023-11-21T07:17:22;65.80;;;25.70;;
5077;SDS011;2557;51.390;7.494;2023-11-21T07:19:48;62.73;;;26.00;;
5077;SDS011;2557;51.390;7.494;2023-11-21T07:22:14;64.23;;;24.63;;
5077;SDS011;2557;51.390;7.494;2023-11-21T07:24:46;67.63;;;27.47;;
5077;SDS011;2557;51.390;7.494;2023-11-21T07:27:13;62.43;;;25.47;;
5077;SDS011;2557;51.390;7.494;2023-11-21T07:29:39;63.57;;;28.30;;
5077;SDS011;2557;51.390;7.494;2023-11-21T07:32:05;72.90;;;28.20;;
5077;SDS011;2557;51.390;7.494;2023-11-21T07:34:31;63.13;;;25.20;;
5077;SDS011;2557;51.390;7.494;2023-11-21T07:36:57;58.87;;;25.50;;
5077;SDS011;2557;51.390;7.494;2023-11-21T07:39:23;66.93;;;25.77;;
5077;SDS011;2557;51.390;7.494;2023-11-21T07:41:50;66.27;;;28.53;;
5077;SDS011;2557;51.390;7.494;2023-11-21T07:44:16;59.00;;;26.27;;
5077;SDS011;2557;51.390;7.494;2023-11-21T07:46:42;55.73;;;24.37;;
5077;SDS011;2557;51.390;7.494;2023-11-21T07:49:09;65.97;;;26.47;;
5077;SDS011;2557;51.390;7.494;2023-11-21T07:51:35;64.07;;;25.90;;
5077;SDS011;2557;51.390;7.494;2023-11-21T07:54:01;56.27;;;23.17;;
5077;SDS011;2557;51.390;7.494;2023-11-21T07:56:27;71.50;;;25.00;;
5077;SDS011;2557;51.390;7.494;2023-11-21T07:58:53;61.60;;;23.43;;
5077;SDS011;2557;51.390;7.494;2023-11-21T08:01:19;59.80;;;25.60;;
5077;SDS011;2557;51.390;7.494;2023-11-21T08:03:45;55.17;;;25.40;;
5077;SDS011;2557;51.390;7.494;2023-11-21T08:06:12;64.57;;;29.33;;
5077;SDS011;2557;51.390;7.494;2023-11-21T08:08:38;54.20;;;25.17;;
5077;SDS011;2557;51.390;7.494;2023-11-21T08:11:04;49.90;;;24.00;;
5077;SDS011;2557;51.390;7.494;2023-11-21T08:13:30;50.07;;;25.40;;
5077;SDS011;2557;51.390;7.494;2023-11-21T08:15:56;45.37;;;24.03;;
5077;SDS011;2557;51.390;7.494;2023-11-21T08:18:30;64.83;;;26.07;;
5077;SDS011;2557;51.390;7.494;2023-11-21T08:20:56;56.50;;;24.53;;
5077;SDS011;2557;51.390;7.494;2023-11-21T08:23:22;54.80;;;25.03;;
5077;SDS011;2557;51.390;7.494;2023-11-21T08:25:50;54.60;;;24.40;;
5077;SDS011;2557;51.390;7.494;2023-11-21T08:28:17;49.10;;;23.37;;
5077;SDS011;2557;51.390;7.494;2023-11-21T08:30:43;41.43;;;23.60;;
5077;SDS011;2557;51.390;7.494;2023-11-21T08:33:09;47.63;;;22.50;;
5077;SDS011;2557;51.390;7.494;2023-11-21T08:35:36;48.03;;;22.30;;
5077;SDS011;2557;51.390;7.494;2023-11-21T08:38:03;54.10;;;23.03;;
5077;SDS011;2557;51.390;7.494;2023-11-21T08:40:29;37.20;;;22.37;;
5077;SDS011;2557;51.390;7.494;2023-11-21T08:42:55;49.07;;;19.70;;
5077;SDS011;2557;51.390;7.494;2023-11-21T08:45:23;47.97;;;21.93;;
5077;SDS011;2557;51.390;7.494;2023-11-21T08:47:50;38.27;;;21.60;;
5077;SDS011;2557;51.390;7.494;2023-11-21T08:50:16;39.70;;;21.93;;
5077;SDS011;2557;51.390;7.494;2023-11-21T08:52:43;47.50;;;20.90;;
5077;SDS011;2557;51.390;7.494;2023-11-21T08:55:10;43.53;;;20.63;;
5077;SDS011;2557;51.390;7.494;2023-11-21T08:57:39;44.10;;;21.17;;
5077;SDS011;2557;51.390;7.494;2023-11-21T09:00:07;44.63;;;19.77;;
5077;SDS011;2557;51.390;7.494;2023-11-21T09:02:36;47.53;;;21.47;;
5077;SDS011;2557;51.390;7.494;2023-11-21T09:05:03;50.00;;;24.30;;
5077;SDS011;2557;51.390;7.494;2023-11-21T09:07:29;52.13;;;22.10;;
5077;SDS011;2557;51.390;7.494;2023-11-21T09:09:55;40.83;;;21.30;;
5077;SDS011;2557;51.390;7.494;2023-11-21T09:12:21;40.20;;;21.27;;
5077;SDS011;2557;51.390;7.494;2023-11-21T09:14:49;44.83;;;21.83;;
5077;SDS011;2557;51.390;7.494;2023-11-21T09:17:15;51.07;;;22.40;;
5077;SDS011;2557;51.390;7.494;2023-11-21T09:19:42;50.80;;;23.70;;
5077;SDS011;2557;51.390;7.494;2023-11-21T09:22:15;53.57;;;24.37;;
5077;SDS011;2557;51.390;7.494;2023-11-21T09:24:41;54.73;;;24.37;;
5077;SDS011;2557;51.390;7.494;2023-11-21T09:27:07;39.10;;;22.53;;
5077;SDS011;2557;51.390;7.494;2023-11-21T09:29:34;51.17;;;25.00;;
5077;SDS011;2557;51.390;7.494;2023-11-21T09:32:00;55.23;;;26.40;;
5077;SDS011;2557;51.390;7.494;2023-11-21T09:34:26;52.80;;;22.23;;
5077;SDS011;2557;51.390;7.494;2023-11-21T09:36:52;47.43;;;25.73;;
5077;SDS011;2557;51.390;7.494;2023-11-21T09:39:18;53.87;;;24.83;;
5077;SDS011;2557;51.390;7.494;2023-11-21T09:41:51;60.37;;;23.90;;
5077;SDS011;2557;51.390;7.494;2023-11-21T09:44:22;48.13;;;23.63;;
5077;SDS011;2557;51.390;7.494;2023-11-21T09:46:51;56.17;;;26.13;;
5077;SDS011;2557;51.390;7.494;2023-11-21T09:49:20;56.33;;;26.50;;
5077;SDS011;2557;51.390;7.494;2023-11-21T09:51:50;53.60;;;24.47;;
5077;SDS011;2557;51.390;7.494;2023-11-21T09:54:17;50.97;;;23.67;;
5077;SDS011;2557;51.390;7.494;2023-11-21T09:56:46;54.70;;;25.37;;
5077;SDS011;2557;51.390;7.494;2023-11-21T09:59:13;59.60;;;25.70;;
5077;SDS011;2557;51.390;7.494;2023-11-21T10:01:39;51.07;;;25.27;;
5077;SDS011;2557;51.390;7.494;2023-11-21T10:04:06;68.27;;;26.17;;
5077;SDS011;2557;51.390;7.494;2023-11-21T10:06:36;52.10;;;25.57;;
5077;SDS011;2557;51.390;7.494;2023-11-21T10:09:03;51.67;;;25.97;;
5077;SDS011;2557;51.390;7.494;2023-11-21T10:11:34;47.30;;;24.27;;
5077;SDS011;2557;51.390;7.494;2023-11-21T10:14:00;49.20;;;25.10;;
5077;SDS011;2557;51.390;7.494;2023-11-21T10:16:27;54.10;;;25.87;;
5077;SDS011;2557;51.390;7.494;2023-11-21T10:18:53;53.00;;;25.20;;
5077;SDS011;2557;51.390;7.494;2023-11-21T10:21:20;50.77;;;24.43;;
5077;SDS011;2557;51.390;7.494;2023-11-21T10:23:46;57.30;;;24.10;;
5077;SDS011;2557;51.390;7.494;2023-11-21T10:26:12;62.63;;;26.83;;
5077;SDS011;2557;51.390;7.494;2023-11-21T10:28:41;49.33;;;23.17;;
5077;SDS011;2557;51.390;7.494;2023-11-21T10:31:07;53.50;;;22.70;;
5077;SDS011;2557;51.390;7.494;2023-11-21T10:33:33;65.47;;;30.23;;
5077;SDS011;2557;51.390;7.494;2023-11-21T10:35:59;47.17;;;23.63;;
5077;SDS011;2557;51.390;7.494;2023-11-21T10:38:26;59.17;;;24.27;;
5077;SDS011;2557;51.390;7.494;2023-11-21T10:40:54;49.73;;;22.53;;
5077;SDS011;2557;51.390;7.494;2023-11-21T10:43:20;53.83;;;25.60;;
5077;SDS011;2557;51.390;7.494;2023-11-21T10:45:50;57.67;;;26.00;;
5077;SDS011;2557;51.390;7.494;2023-11-21T10:48:16;57.37;;;23.47;;
5077;SDS011;2557;51.390;7.494;2023-11-21T10:50:42;64.83;;;25.80;;
5077;SDS011;2557;51.390;7.494;2023-11-21T10:53:09;49.47;;;25.60;;
5077;SDS011;2557;51.390;7.494;2023-11-21T10:55:37;60.50;;;23.47;;
5077;SDS011;2557;51.390;7.494;2023-11-21T10:58:03;58.10;;;25.43;;
5077;SDS011;2557;51.390;7.494;2023-11-21T11:00:30;50.53;;;24.53;;
5077;SDS011;2557;51.390;7.494;2023-11-21T11:02:56;49.37;;;25.37;;
5077;SDS011;2557;51.390;7.494;2023-11-21T11:05:24;60.27;;;24.20;;
5077;SDS011;2557;51.390;7.494;2023-11-21T11:07:51;59.53;;;28.03;;
5077;SDS011;2557;51.390;7.494;2023-11-21T11:10:19;62.53;;;25.37;;
5077;SDS011;2557;51.390;7.494;2023-11-21T11:12:48;64.03;;;25.63;;
5077;SDS011;2557;51.390;7.494;2023-11-21T11:15:15;63.60;;;26.00;;
5077;SDS011;2557;51.390;7.494;2023-11-21T11:17:42;56.67;;;26.67;;
5077;SDS011;2557;51.390;7.494;2023-11-21T11:20:10;57.30;;;25.03;;
5077;SDS011;2557;51.390;7.494;2023-11-21T11:22:42;52.03;;;24.67;;
5077;SDS011;2557;51.390;7.494;2023-11-21T11:27:52;64.40;;;25.63;;
5077;SDS011;2557;51.390;7.494;2023-11-21T11:30:24;63.17;;;25.10;;
5077;SDS011;2557;51.390;7.494;2023-11-21T11:38:20;82.70;;;26.90;;
5077;SDS011;2557;51.390;7.494;2023-11-21T11:40:47;56.60;;;25.00;;
5077;SDS011;2557;51.390;7.494;2023-11-21T11:43:13;68.37;;;25.93;;
5077;SDS011;2557;51.390;7.494;2023-11-21T11:45:50;52.20;;;24.50;;
5077;SDS011;2557;51.390;7.494;2023-11-21T11:48:18;54.07;;;25.83;;
5077;SDS011;2557;51.390;7.494;2023-11-21T11:53:32;63.43;;;26.00;;
5077;SDS011;2557;51.390;7.494;2023-11-21T11:58:43;49.13;;;21.83;;
5077;SDS011;2557;51.390;7.494;2023-11-21T12:01:10;58.63;;;22.93;;
5077;SDS011;2557;51.390;7.494;2023-11-21T12:03:37;49.60;;;22.90;;
5077;SDS011;2557;51.390;7.494;2023-11-21T12:06:04;58.07;;;24.33;;
5077;SDS011;2557;51.390;7.494;2023-11-21T12:08:31;62.33;;;25.30;;
5077;SDS011;2557;51.390;7.494;2023-11-21T12:10:58;60.63;;;25.10;;
5077;SDS011;2557;51.390;7.494;2023-11-21T12:13:24;54.90;;;22.97;;
5077;SDS011;2557;51.390;7.494;2023-11-21T12:15:50;59.30;;;28.10;;
5077;SDS011;2557;51.390;7.494;2023-11-21T12:18:16;71.20;;;26.30;;
5077;SDS011;2557;51.390;7.494;2023-11-21T12:20:42;59.20;;;27.50;;
5077;SDS011;2557;51.390;7.494;2023-11-21T12:23:12;58.20;;;27.10;;
5077;SDS011;2557;51.390;7.494;2023-11-21T12:25:40;56.23;;;25.53;;
5077;SDS011;2557;51.390;7.494;2023-11-21T12:28:07;69.87;;;27.13;;
5077;SDS011;2557;51.390;7.494;2023-11-21T12:30:36;61.07;;;28.47;;
5077;SDS011;2557;51.390;7.494;2023-11-21T12:33:03;62.93;;;28.50;;
5077;SDS011;2557;51.390;7.494;2023-11-21T12:35:32;60.30;;;29.30;;
5077;SDS011;2557;51.390;7.494;2023-11-21T12:38:02;55.77;;;26.90;;
5077;SDS011;2557;51.390;7.494;2023-11-21T12:40:28;55.73;;;26.77;;
5077;SDS011;2557;51.390;7.494;2023-11-21T12:42:58;48.20;;;26.20;;
5077;SDS011;2557;51.390;7.494;2023-11-21T12:45:26;48.80;;;25.80;;
5077;SDS011;2557;51.390;7.494;2023-11-21T12:47:56;55.80;;;26.13;;
5077;SDS011;2557;51.390;7.494;2023-11-21T12:50:25;44.60;;;25.30;;
5077;SDS011;2557;51.390;7.494;2023-11-21T12:52:55;54.80;;;25.83;;
5077;SDS011;2557;51.390;7.494;2023-11-21T12:55:23;52.47;;;26.20;;
5077;SDS011;2557;51.390;7.494;2023-11-21T12:57:51;54.80;;;27.03;;
5077;SDS011;2557;51.390;7.494;2023-11-21T13:00:19;58.50;;;28.90;;
5077;SDS011;2557;51.390;7.494;2023-11-21T13:02:55;54.40;;;26.63;;
5077;SDS011;2557;51.390;7.494;2023-11-21T13:05:27;58.63;;;27.33;;
5077;SDS011;2557;51.390;7.494;2023-11-21T13:07:57;62.97;;;27.33;;
5077;SDS011;2557;51.390;7.494;2023-11-21T13:10:24;50.30;;;27.33;;
5077;SDS011;2557;51.390;7.494;2023-11-21T13:12:52;61.40;;;26.13;;
5077;SDS011;2557;51.390;7.494;2023-11-21T13:15:19;54.90;;;25.57;;
5077;SDS011;2557;51.390;7.494;2023-11-21T13:17:46;49.00;;;26.13;;
5077;SDS011;2557;51.390;7.494;2023-11-21T13:20:12;45.83;;;25.57;;
5077;SDS011;2557;51.390;7.494;2023-11-21T13:22:49;49.13;;;24.70;;
5077;SDS011;2557;51.390;7.494;2023-11-21T13:25:16;59.97;;;27.30;;
5077;SDS011;2557;51.390;7.494;2023-11-21T13:27:43;43.23;;;25.33;;
5077;SDS011;2557;51.390;7.494;2023-11-21T13:30:10;44.73;;;25.10;;
5077;SDS011;2557;51.390;7.494;2023-11-21T13:32:40;45.07;;;25.10;;
5077;SDS011;2557;51.390;7.494;2023-11-21T13:35:06;50.10;;;25.97;;
5077;SDS011;2557;51.390;7.494;2023-11-21T13:37:36;48.20;;;25.77;;
5077;SDS011;2557;51.390;7.494;2023-11-21T13:40:03;57.10;;;29.03;;
5077;SDS011;2557;51.390;7.494;2023-11-21T13:42:39;51.73;;;26.80;;
5077;SDS011;2557;51.390;7.494;2023-11-21T13:45:07;44.23;;;23.70;;
5077;SDS011;2557;51.390;7.494;2023-11-21T13:47:33;44.50;;;23.10;;
5077;SDS011;2557;51.390;7.494;2023-11-21T13:50:01;46.27;;;24.20;;
5077;SDS011;2557;51.390;7.494;2023-11-21T13:52:28;43.33;;;23.03;;
5077;SDS011;2557;51.390;7.494;2023-11-21T13:54:58;43.43;;;23.33;;
5077;SDS011;2557;51.390;7.494;2023-11-21T13:57:26;49.80;;;25.20;;
5077;SDS011;2557;51.390;7.494;2023-11-21T13:59:53;43.90;;;23.60;;
5077;SDS011;2557;51.390;7.494;2023-11-21T14:02:19;49.33;;;24.40;;
5077;SDS011;2557;51.390;7.494;2023-11-21T14:04:53;47.20;;;24.27;;
5077;SDS011;2557;51.390;7.494;2023-11-21T14:07:25;44.10;;;24.90;;
5077;SDS011;2557;51.390;7.494;2023-11-21T14:10:00;47.07;;;23.20;;
5077;SDS011;2557;51.390;7.494;2023-11-21T14:12:26;43.20;;;23.50;;
5077;SDS011;2557;51.390;7.494;2023-11-21T14:14:53;45.10;;;24.10;;
5077;SDS011;2557;51.390;7.494;2023-11-21T14:17:20;49.63;;;23.47;;
5077;SDS011;2557;51.390;7.494;2023-11-21T14:19:47;44.40;;;21.27;;
5077;SDS011;2557;51.390;7.494;2023-11-21T14:22:14;42.93;;;22.00;;
5077;SDS011;2557;51.390;7.494;2023-11-21T14:24:40;39.50;;;21.33;;
5077;SDS011;2557;51.390;7.494;2023-11-21T14:27:11;43.63;;;21.53;;
5077;SDS011;2557;51.390;7.494;2023-11-21T14:29:37;36.17;;;19.80;;
5077;SDS011;2557;51.390;7.494;2023-11-21T14:32:08;38.57;;;21.80;;
5077;SDS011;2557;51.390;7.494;2023-11-21T14:34:34;35.20;;;19.53;;
5077;SDS011;2557;51.390;7.494;2023-11-21T14:37:01;33.80;;;16.90;;
5077;SDS011;2557;51.390;7.494;2023-11-21T14:39:30;29.97;;;16.60;;
5077;SDS011;2557;51.390;7.494;2023-11-21T14:42:00;32.03;;;16.97;;
5077;SDS011;2557;51.390;7.494;2023-11-21T14:44:27;31.80;;;17.43;;
5077;SDS011;2557;51.390;7.494;2023-11-21T14:46:57;33.33;;;16.70;;
5077;SDS011;2557;51.390;7.494;2023-11-21T14:49:24;37.67;;;16.90;;
5077;SDS011;2557;51.390;7.494;2023-11-21T14:51:53;26.23;;;14.93;;
5077;SDS011;2557;51.390;7.494;2023-11-21T14:54:28;27.50;;;14.97;;
5077;SDS011;2557;51.390;7.494;2023-11-21T14:57:11;20.57;;;12.27;;
5077;SDS011;2557;51.390;7.494;2023-11-21T14:59:42;22.57;;;12.90;;